Time;durP1;ratioP1;P1;durP2;ratioP2;P2;SDS_P1;SDS_P2;PMS_P1;PMS_P2;Temp;Humidity;BMP_temperature;BMP_pressure;BME280_temperature;BME280_humidity;BME280_pressure;Samples;Min_cycle;Max_cycle;Signal;HPM_P1;HPM_P2
2022/10/25 00:01:29;;;;;;;17.87;7.30;;;;;;;14.21;100.00;98919.66;1798329;77;21003;-46
2022/10/25 00:03:56;;;;;;;14.80;6.92;;;;;;;14.21;100.00;98914.38;1777726;79;21491;-46
2022/10/25 00:06:24;;;;;;;14.65;7.70;;;;;;;14.23;100.00;98914.26;1814023;77;21470;-46
2022/10/25 00:08:50;;;;;;;13.70;6.97;;;;;;;14.20;100.00;98913.50;1792462;78;21007;-47
2022/10/25 00:11:24;;;;;;;15.13;6.75;;;;;;;14.18;100.00;98910.14;1776105;80;21068;-45
2022/10/25 00:13:53;;;;;;;17.57;6.92;;;;;;;14.15;100.00;98903.78;1794002;79;21474;-45
2022/10/25 00:16:25;;;;;;;14.35;7.60;;;;;;;14.14;100.00;98902.09;1782395;78;21523;-47
2022/10/25 00:18:52;;;;;;;12.05;6.47;;;;;;;14.14;100.00;98901.25;1811211;78;21069;-45
2022/10/25 00:21:20;;;;;;;13.35;6.20;;;;;;;14.12;100.00;98907.98;1808437;79;21607;-45
2022/10/25 00:23:47;;;;;;;;;;;;;;;14.14;100.00;98910.02;1795263;79;21022;-46
2022/10/25 00:26:14;;;;;;;16.48;7.42;;;;;;;14.11;100.00;98914.20;1779830;77;20094;-45
2022/10/25 00:28:42;;;;;;;13.88;6.47;;;;;;;14.10;100.00;98909.90;1776866;80;21060;-47
2022/10/25 00:31:13;;;;;;;10.38;6.42;;;;;;;14.12;100.00;98913.27;1771994;77;21035;-45
2022/10/25 00:33:41;;;;;;;12.03;6.70;;;;;;;14.12;100.00;98918.55;1786756;78;20976;-45
2022/10/25 00:36:17;;;;;;;10.90;6.85;;;;;;;14.14;100.00;98913.16;1795078;79;21579;-48
2022/10/25 00:38:44;;;;;;;17.35;7.12;;;;;;;14.16;100.00;98906.77;1737402;81;20974;-45
2022/10/25 00:41:18;;;;;;;10.72;6.25;;;;;;;14.15;100.00;98910.39;1769757;80;21063;-46
2022/10/25 00:43:50;;;;;;;13.83;6.80;;;;;;;14.15;100.00;98917.01;1806593;77;21118;-45
2022/10/25 00:46:27;;;;;;;15.08;6.83;;;;;;;14.17;100.00;98926.98;1804429;77;21046;-47
2022/10/25 00:49:02;;;;;;;;;;;;;;;14.18;100.00;98929.14;1795056;78;21797;-46
2022/10/25 00:51:44;;;;;;;12.78;6.97;;;;;;;14.17;100.00;98926.98;1804230;78;20137;-45
2022/10/25 00:54:16;;;;;;;13.22;6.33;;;;;;;14.20;100.00;98925.41;1790418;79;20988;-45
2022/10/25 00:56:46;;;;;;;14.55;6.53;;;;;;;14.19;100.00;98923.73;1780604;79;21452;-46
2022/10/25 00:59:18;;;;;;;17.10;6.67;;;;;;;14.20;100.00;98921.93;1781484;79;21006;-45
2022/10/25 01:01:45;;;;;;;11.63;6.75;;;;;;;14.19;100.00;98925.06;1782237;77;21050;-47
2022/10/25 01:04:15;;;;;;;13.60;7.17;;;;;;;14.20;100.00;98917.96;1805888;79;20995;-46
2022/10/25 01:06:49;;;;;;;10.75;6.83;;;;;;;14.21;100.00;98913.05;1790414;78;21124;-46
2022/10/25 01:09:20;;;;;;;14.07;6.92;;;;;;;14.19;100.00;98913.16;1801297;77;21002;-45
2022/10/25 01:11:47;;;;;;;15.72;6.85;;;;;;;14.18;100.00;98903.53;1764752;80;21481;-46
2022/10/25 01:14:16;;;;;;;11.80;6.40;;;;;;;14.21;100.00;98907.27;1773967;80;21076;-46
2022/10/25 01:17:15;;;;;;;17.92;7.05;;;;;;;14.21;100.00;98912.56;1770603;79;21574;-45
2022/10/25 01:19:53;;;;;;;12.23;6.83;;;;;;;14.23;100.00;98902.36;1790134;78;20983;-45
2022/10/25 01:22:46;;;;;;;12.43;6.42;;;;;;;14.19;100.00;98894.65;1782491;78;21488;-46
2022/10/25 01:25:42;;;;;;;12.65;6.37;;;;;;;14.22;100.00;98892.23;1805612;78;21516;-45
2022/10/25 01:28:38;;;;;;;9.60;6.42;;;;;;;14.20;100.00;98893.67;1776347;78;21433;-46
2022/10/25 01:31:36;;;;;;;10.90;6.22;;;;;;;14.18;100.00;98894.27;1800844;78;21011;-46
2022/10/25 01:34:20;;;;;;;12.37;6.40;;;;;;;14.18;100.00;98896.08;1800408;79;21010;-46
2022/10/25 01:37:00;;;;;;;10.48;7.40;;;;;;;14.16;100.00;98894.88;1798025;79;20992;-46
2022/10/25 01:39:35;;;;;;;18.15;7.35;;;;;;;14.16;100.00;98886.94;1797641;79;21015;-46
2022/10/25 01:42:35;;;;;;;13.13;7.35;;;;;;;14.17;100.00;98883.80;1791050;79;21041;-46
2022/10/25 01:45:31;;;;;;;13.03;7.12;;;;;;;14.14;100.00;98880.09;1775478;80;21034;-46
2022/10/25 01:48:04;;;;;;;10.93;6.60;;;;;;;14.11;100.00;98878.52;1774576;80;21027;-45
2022/10/25 01:50:35;;;;;;;11.63;6.95;;;;;;;14.10;100.00;98887.87;1823624;77;21014;-46
2022/10/25 01:53:02;;;;;;;12.03;6.37;;;;;;;14.11;100.00;98886.94;1820689;78;21575;-46
2022/10/25 01:55:34;;;;;;;11.22;6.53;;;;;;;14.13;100.00;98888.48;1820289;77;21014;-45
2022/10/25 01:58:39;;;;;;;13.88;6.83;;;;;;;14.14;100.00;98890.19;1835259;77;20979;-47
2022/10/25 02:01:44;;;;;;;19.92;7.62;;;;;;;14.14;100.00;98895.47;1834938;77;20994;-48
2022/10/25 02:04:51;;;;;;;13.03;7.00;;;;;;;14.11;100.00;98890.41;1835739;77;20991;-47
2022/10/25 02:07:23;;;;;;;19.40;7.20;;;;;;;14.11;100.00;98889.09;1830892;77;21011;-46
2022/10/25 02:09:58;;;;;;;12.15;6.35;;;;;;;14.07;100.00;98881.52;1820630;77;21010;-48
2022/10/25 02:12:32;;;;;;;12.58;7.00;;;;;;;14.04;100.00;98879.11;1822953;77;20983;-47
2022/10/25 02:15:09;;;;;;;12.75;6.70;;;;;;;14.04;100.00;98871.17;1825206;77;20998;-46
2022/10/25 02:17:44;;;;;;;12.35;7.00;;;;;;;14.04;100.00;98873.81;1829120;77;21007;-46
2022/10/25 02:20:14;;;;;;;11.12;6.72;;;;;;;14.01;100.00;98869.62;1829389;77;20999;-48
2022/10/25 02:22:42;;;;;;;13.70;7.22;;;;;;;14.00;100.00;98870.56;1831111;77;21186;-46
2022/10/25 02:25:10;;;;;;;10.68;6.65;;;;;;;13.97;100.00;98879.59;1826708;77;21011;-47
2022/10/25 02:27:39;;;;;;;10.95;6.97;;;;;;;13.95;100.00;98874.03;1821575;77;21016;-46
2022/10/25 02:30:07;;;;;;;15.90;7.42;;;;;;;13.93;100.00;98873.31;1817412;77;21097;-46
2022/10/25 02:32:33;;;;;;;15.60;6.75;;;;;;;13.90;100.00;98880.14;1823315;77;21062;-46
2022/10/25 02:35:00;;;;;;;14.50;7.58;;;;;;;13.87;100.00;98877.27;1824951;77;20966;-47
2022/10/25 02:37:27;;;;;;;9.93;6.70;;;;;;;13.83;100.00;98871.36;1820034;77;21507;-47
2022/10/25 02:39:55;;;;;;;11.70;7.00;;;;;;;13.80;100.00;98874.23;1818963;77;21006;-47
2022/10/25 02:42:21;;;;;;;;;;;;;;;13.78;100.00;98873.99;1773185;77;21833;-46
2022/10/25 02:44:48;;;;;;;11.57;7.20;;;;;;;13.72;100.00;98881.91;1764476;79;20126;-46
2022/10/25 02:47:15;;;;;;;13.43;7.55;;;;;;;13.71;100.00;98882.02;1761547;79;21003;-47
2022/10/25 02:49:42;;;;;;;13.85;7.40;;;;;;;13.66;100.00;98881.06;1765536;80;21822;-46
2022/10/25 02:52:09;;;;;;;17.90;7.28;;;;;;;13.63;100.00;98885.23;1754179;78;21021;-46
2022/10/25 02:54:36;;;;;;;12.50;8.37;;;;;;;13.60;100.00;98884.14;1760920;79;21097;-47
2022/10/25 02:57:03;;;;;;;16.40;9.00;;;;;;;13.57;100.00;98883.03;1765853;79;21663;-46
2022/10/25 02:59:30;;;;;;;17.98;9.70;;;;;;;13.56;100.00;98884.01;1760280;79;21002;-47
2022/10/25 03:01:56;;;;;;;19.67;11.12;;;;;;;13.54;100.00;98884.60;1757144;80;20988;-46
2022/10/25 03:04:23;;;;;;;12.18;9.43;;;;;;;13.54;100.00;98877.52;1757698;79;21018;-46
2022/10/25 03:06:50;;;;;;;14.85;8.63;;;;;;;13.55;100.00;98879.66;1758329;80;21135;-46
2022/10/25 03:09:17;;;;;;;15.93;8.60;;;;;;;13.56;100.00;98882.20;1765870;79;21020;-46
2022/10/25 03:11:44;;;;;;;14.03;9.40;;;;;;;13.58;100.00;98880.77;1761493;80;21039;-46
2022/10/25 03:14:10;;;;;;;19.37;9.13;;;;;;;13.57;100.00;98875.11;1765891;79;21671;-46
2022/10/25 03:16:37;;;;;;;16.00;9.00;;;;;;;13.55;100.00;98869.09;1758820;79;21465;-46
2022/10/25 03:19:04;;;;;;;14.93;8.73;;;;;;;13.53;100.00;98872.34;1762289;79;21245;-46
2022/10/25 03:21:31;;;;;;;23.57;8.90;;;;;;;13.50;100.00;98867.27;1764659;79;21054;-46
2022/10/25 03:23:58;;;;;;;16.85;8.68;;;;;;;13.48;100.00;98870.51;1756843;79;21120;-46
2022/10/25 03:26:25;;;;;;;16.95;9.45;;;;;;;13.48;100.00;98869.19;1755936;80;21460;-46
2022/10/25 03:28:51;;;;;;;15.80;9.48;;;;;;;13.46;100.00;98865.82;1764031;80;21066;-46
2022/10/25 03:31:19;;;;;;;15.13;8.70;;;;;;;13.47;100.00;98870.16;1758043;79;21017;-46
2022/10/25 03:33:46;;;;;;;15.98;8.88;;;;;;;13.45;100.00;98870.27;1769691;80;21214;-46
2022/10/25 03:36:13;;;;;;;16.25;9.38;;;;;;;13.43;100.00;98867.73;1763240;79;21047;-46
2022/10/25 03:38:40;;;;;;;19.17;9.28;;;;;;;13.39;100.00;98863.64;1770996;79;20987;-47
2022/10/25 03:41:06;;;;;;;13.20;8.63;;;;;;;13.36;100.00;98866.50;1764664;80;21026;-46
2022/10/25 03:43:34;;;;;;;12.98;8.95;;;;;;;13.35;100.00;98863.52;1771000;80;21497;-48
2022/10/25 03:46:00;;;;;;;14.28;8.15;;;;;;;13.34;100.00;98864.94;1735828;81;21068;-46
2022/10/25 03:48:27;;;;;;;17.50;8.50;;;;;;;13.32;100.00;98865.05;1754672;79;21002;-46
2022/10/25 03:50:54;;;;;;;15.50;8.38;;;;;;;13.33;100.00;98869.36;1757770;79;21562;-46
2022/10/25 03:53:21;;;;;;;18.85;7.87;;;;;;;13.32;100.00;98861.09;1762186;79;21113;-47
2022/10/25 03:55:48;;;;;;;17.40;7.67;;;;;;;13.35;100.00;98861.33;1768077;79;21112;-48
2022/10/25 03:58:16;;;;;;;11.97;7.30;;;;;;;13.35;100.00;98868.80;1760566;80;20991;-48
2022/10/25 04:00:42;;;;;;;;;;;;;;;13.34;100.00;98872.37;1765752;80;21058;-48
2022/10/25 04:03:09;;;;;;;11.73;6.92;;;;;;;13.31;100.00;98876.55;1757812;79;20220;-46
2022/10/25 04:05:36;;;;;;;12.27;7.63;;;;;;;13.33;100.00;98875.96;1766634;79;21036;-48
2022/10/25 04:08:03;;;;;;;15.27;6.80;;;;;;;13.37;100.00;98881.86;1763484;79;22235;-46
2022/10/25 04:10:30;;;;;;;14.15;7.65;;;;;;;13.37;100.00;98882.73;1757398;79;21056;-47
2022/10/25 04:12:57;;;;;;;12.77;7.30;;;;;;;13.35;100.00;98892.56;1767980;79;21009;-44
2022/10/25 04:15:24;;;;;;;17.77;7.60;;;;;;;13.38;100.00;98894.13;1758609;79;21011;-47
2022/10/25 04:17:52;;;;;;;18.10;7.27;;;;;;;13.40;100.00;98896.17;1750967;80;21530;-46
2022/10/25 04:20:19;;;;;;;11.97;7.45;;;;;;;13.39;100.00;98895.34;1756625;79;21323;-46
2022/10/25 04:22:55;;;;;;;13.03;7.47;;;;;;;13.42;100.00;98899.09;1754516;80;21483;-46
2022/10/25 04:25:24;;;;;;;11.25;7.65;;;;;;;13.42;100.00;98898.22;1752799;79;21002;-47
2022/10/25 04:27:51;;;;;;;13.10;8.05;;;;;;;13.42;100.00;98891.16;1761427;79;21514;-46
2022/10/25 04:30:18;;;;;;;13.88;7.60;;;;;;;13.40;100.00;98885.61;1758709;79;21047;-46
2022/10/25 04:32:45;;;;;;;10.48;7.78;;;;;;;13.36;100.00;98886.31;1769522;79;21550;-46
2022/10/25 04:35:12;;;;;;;15.40;7.92;;;;;;;13.34;100.00;98880.78;1761466;80;21048;-46
2022/10/25 04:37:38;;;;;;;13.18;7.92;;;;;;;13.30;100.00;98881.45;1770383;79;21125;-46
2022/10/25 04:40:07;;;;;;;12.70;8.25;;;;;;;13.25;100.00;98885.73;1760640;79;21569;-46
2022/10/25 04:42:34;;;;;;;10.60;8.15;;;;;;;13.22;100.00;98882.48;1760711;79;21361;-46
2022/10/25 04:45:01;;;;;;;12.98;8.30;;;;;;;13.20;100.00;98891.83;1754235;79;21637;-46
2022/10/25 04:47:32;;;;;;;15.48;8.33;;;;;;;13.16;100.00;98884.25;1757006;80;20986;-47
2022/10/25 04:49:59;;;;;;;12.68;8.55;;;;;;;13.12;100.00;98884.95;1762799;79;21012;-46
2022/10/25 04:52:28;;;;;;;16.77;9.08;;;;;;;13.06;100.00;98882.28;1762660;80;21041;-46
2022/10/25 04:54:56;;;;;;;15.63;9.33;;;;;;;13.03;100.00;98879.86;1762219;79;21000;-47
2022/10/25 04:57:23;;;;;;;11.93;8.53;;;;;;;13.01;100.00;98879.13;1751276;79;21094;-47
2022/10/25 04:59:51;;;;;;;;;;;;;;;12.99;100.00;98878.39;1762785;79;21691;-46
2022/10/25 05:02:18;;;;;;;18.67;9.25;;;;;;;12.95;100.00;98880.03;1759699;79;20128;-47
2022/10/25 05:04:45;;;;;;;18.52;9.28;;;;;;;12.93;100.00;98883.27;1751503;80;21042;-46
2022/10/25 05:07:11;;;;;;;19.37;10.17;;;;;;;12.91;100.00;98880.73;1755913;80;21526;-46
2022/10/25 05:09:38;;;;;;;16.40;10.07;;;;;;;12.87;100.00;98880.59;1766643;80;20987;-46
2022/10/25 05:12:05;;;;;;;17.03;10.33;;;;;;;12.85;100.00;98878.54;1754963;80;20994;-48
2022/10/25 05:14:32;;;;;;;17.15;10.50;;;;;;;12.82;100.00;98882.25;1751627;80;21293;-46
2022/10/25 05:16:59;;;;;;;22.73;11.00;;;;;;;12.80;100.00;98890.72;1755885;80;21475;-46
2022/10/25 05:19:26;;;;;;;14.13;9.90;;;;;;;12.78;100.00;98887.84;1752087;80;20987;-46
2022/10/25 05:21:52;;;;;;;14.03;9.33;;;;;;;12.77;100.00;98890.09;1753246;80;21523;-47
2022/10/25 05:24:19;;;;;;;13.70;9.40;;;;;;;12.76;100.00;98889.27;1749547;80;22067;-47
2022/10/25 05:26:46;;;;;;;15.13;8.65;;;;;;;12.74;100.00;98892.49;1753989;80;21046;-46
2022/10/25 05:29:13;;;;;;;16.33;9.43;;;;;;;12.73;100.00;98897.88;1759768;79;21035;-47
2022/10/25 05:31:40;;;;;;;15.70;9.10;;;;;;;12.75;100.00;98902.56;1758708;80;21171;-48
2022/10/25 05:34:09;;;;;;;18.75;9.15;;;;;;;12.77;100.00;98903.29;1751106;80;21018;-48
2022/10/25 05:36:36;;;;;;;15.38;8.75;;;;;;;12.77;100.00;98907.25;1755139;80;21022;-47
2022/10/25 05:39:03;;;;;;;17.37;8.80;;;;;;;12.78;100.00;98903.19;1752932;80;21038;-46
2022/10/25 05:41:30;;;;;;;18.00;9.48;;;;;;;12.79;100.00;98913.29;1753611;80;21007;-46
2022/10/25 05:43:58;;;;;;;17.37;9.55;;;;;;;12.80;100.00;98907.88;1752410;80;21037;-46
2022/10/25 05:46:24;;;;;;;14.75;9.33;;;;;;;12.81;100.00;98910.90;1750791;80;21018;-47
2022/10/25 05:48:52;;;;;;;14.50;8.67;;;;;;;12.83;100.00;98904.20;1758683;79;21495;-47
2022/10/25 05:51:22;;;;;;;;;;;;;;;12.86;100.00;98909.23;1790583;79;21428;-46
2022/10/25 05:53:52;;;;;;;15.83;9.93;;;;;;;12.84;100.00;98908.50;1780312;79;20157;-47
2022/10/25 05:56:21;;;;;;;14.47;9.45;;;;;;;12.86;100.00;98906.59;1785111;79;21026;-47
2022/10/25 05:58:48;;;;;;;14.93;9.20;;;;;;;12.87;100.00;98910.45;1770582;79;21002;-46
2022/10/25 06:01:19;;;;;;;11.78;8.95;;;;;;;12.92;100.00;98915.42;1755615;79;20997;-47
2022/10/25 06:03:51;;;;;;;17.45;9.95;;;;;;;12.95;100.00;98913.89;1753232;80;21010;-46
2022/10/25 06:06:18;;;;;;;15.85;9.50;;;;;;;12.98;100.00;98917.61;1761399;80;21506;-46
2022/10/25 06:08:46;;;;;;;16.77;9.68;;;;;;;13.00;100.00;98910.91;1761644;80;20998;-47
2022/10/25 06:11:16;;;;;;;15.35;9.45;;;;;;;13.04;100.00;98914.55;1753320;80;21535;-48
2022/10/25 06:13:44;;;;;;;15.65;9.55;;;;;;;13.06;100.00;98920.56;1752677;80;20998;-46
2022/10/25 06:16:14;;;;;;;13.15;8.78;;;;;;;13.06;100.00;98926.30;1759271;80;21507;-47
2022/10/25 06:18:41;;;;;;;15.78;9.68;;;;;;;13.06;100.00;98934.22;1750257;80;21011;-47
2022/10/25 06:21:13;;;;;;;18.70;9.00;;;;;;;13.07;100.00;98935.91;1762791;80;20978;-46
2022/10/25 06:23:41;;;;;;;13.48;8.70;;;;;;;13.06;100.00;98940.36;1764849;80;21018;-50
2022/10/25 06:26:11;;;;;;;13.43;8.80;;;;;;;13.09;100.00;98942.41;1753487;80;21560;-48
2022/10/25 06:28:38;;;;;;;15.30;8.78;;;;;;;13.10;100.00;98944.08;1749994;80;21038;-48
2022/10/25 06:31:10;;;;;;;12.40;8.05;;;;;;;13.10;100.00;98942.76;1753296;80;21598;-46
2022/10/25 06:33:38;;;;;;;15.63;8.18;;;;;;;13.05;100.00;98943.10;1751458;80;21023;-47
2022/10/25 06:36:08;;;;;;;10.93;8.40;;;;;;;13.08;100.00;98943.34;1752401;80;21097;-48
2022/10/25 06:38:35;;;;;;;13.08;8.58;;;;;;;13.05;100.00;98949.22;1752205;80;21054;-47
2022/10/25 06:41:06;;;;;;;13.62;9.73;;;;;;;13.06;100.00;98954.88;1748398;80;21010;-48
2022/10/25 06:43:37;;;;;;;18.00;9.60;;;;;;;13.06;100.00;98961.48;1759867;80;20998;-46
2022/10/25 06:46:23;;;;;;;13.00;9.43;;;;;;;13.08;100.00;98964.02;1763446;79;21022;-49
2022/10/25 06:48:52;;;;;;;13.05;9.05;;;;;;;13.09;100.00;98960.41;1759473;80;21507;-47
2022/10/25 06:51:21;;;;;;;13.95;9.30;;;;;;;13.06;100.00;98961.48;1756930;80;21005;-49
2022/10/25 06:53:55;;;;;;;13.00;9.93;;;;;;;13.07;100.00;98964.95;1753219;80;21088;-48
2022/10/25 06:56:22;;;;;;;13.13;9.10;;;;;;;13.10;100.00;98969.16;1753180;80;21510;-46
2022/10/25 06:58:49;;;;;;;11.97;9.18;;;;;;;13.01;100.00;98956.16;1753201;80;21021;-47
2022/10/25 07:01:18;;;;;;;17.00;9.53;;;;;;;13.01;100.00;98956.16;1753805;80;21026;-46
2022/10/25 07:03:46;;;;;;;20.05;9.90;;;;;;;13.04;100.00;98960.75;1756891;80;21048;-46
2022/10/25 07:06:17;;;;;;;14.95;9.20;;;;;;;13.04;100.00;98967.34;1756297;80;21520;-46
2022/10/25 07:08:46;;;;;;;13.15;9.30;;;;;;;13.04;100.00;98969.12;1785271;79;21010;-47
2022/10/25 07:11:17;;;;;;;18.92;9.43;;;;;;;13.06;100.00;98976.00;1760222;80;21010;-46
2022/10/25 07:13:44;;;;;;;14.55;9.13;;;;;;;13.09;100.00;98972.77;1752272;80;21009;-47
2022/10/25 07:16:15;;;;;;;13.78;8.95;;;;;;;13.13;100.00;98972.91;1759572;80;20983;-49
2022/10/25 07:18:42;;;;;;;15.40;9.18;;;;;;;13.21;100.00;98973.22;1754652;79;21009;-46
2022/10/25 07:21:19;;;;;;;12.73;8.28;;;;;;;13.26;100.00;98981.63;1752781;80;21642;-53
2022/10/25 07:23:48;;;;;;;15.80;8.10;;;;;;;13.33;100.00;98977.63;1756781;80;21622;-46
2022/10/25 07:26:23;;;;;;;14.68;8.00;;;;;;;13.38;100.00;98982.12;1755912;80;21542;-46
2022/10/25 07:28:52;;;;;;;13.95;8.20;;;;;;;13.43;100.00;98975.20;1740316;80;20991;-46
2022/10/25 07:31:23;;;;;;;13.60;7.60;;;;;;;13.47;100.00;98974.50;1694439;81;21085;-46
2022/10/25 07:33:53;;;;;;;13.55;8.05;;;;;;;13.47;100.00;98968.73;1724106;82;21047;-48
2022/10/25 07:36:20;;;;;;;12.13;7.58;;;;;;;13.51;100.00;98974.63;1722959;81;21074;-47
2022/10/25 07:38:47;;;;;;;16.12;7.50;;;;;;;13.57;100.00;98970.22;1721619;81;21521;-46
2022/10/25 07:41:14;;;;;;;13.75;7.17;;;;;;;13.62;100.00;98969.41;1724729;81;21074;-46
2022/10/25 07:43:41;;;;;;;11.85;6.90;;;;;;;13.64;100.00;98966.17;1729029;81;21054;-46
2022/10/25 07:46:08;;;;;;;11.47;7.73;;;;;;;13.63;100.00;98971.11;1724831;81;21101;-47
2022/10/25 07:48:35;;;;;;;12.65;8.33;;;;;;;13.57;100.00;98972.41;1720419;81;21077;-47
2022/10/25 07:51:11;;;;;;;12.98;7.35;;;;;;;13.62;100.00;98964.98;1733700;82;21050;-46
2022/10/25 07:53:39;;;;;;;12.95;7.92;;;;;;;13.64;100.00;98968.81;1716065;82;21069;-46
2022/10/25 07:56:09;;;;;;;16.87;8.08;;;;;;;13.70;100.00;98976.77;1722208;82;21527;-45
2022/10/25 07:58:36;;;;;;;14.28;7.83;;;;;;;13.71;100.00;98971.86;1728101;82;21270;-48
2022/10/25 08:01:06;;;;;;;11.10;7.45;;;;;;;13.73;100.00;98974.74;1738569;81;21497;-48
2022/10/25 08:03:33;;;;;;;12.58;7.40;;;;;;;13.75;100.00;98976.83;1728863;82;21014;-45
2022/10/25 08:06:00;;;;;;;10.63;7.20;;;;;;;13.74;100.00;98980.89;1742357;80;21053;-46
2022/10/25 08:08:27;;;;;;;12.80;6.58;;;;;;;13.78;100.00;98989.79;1754348;80;21535;-48
2022/10/25 08:10:55;;;;;;;12.05;6.60;;;;;;;13.79;100.00;98986.69;1730355;81;21020;-46
2022/10/25 08:13:21;;;;;;;11.83;6.47;;;;;;;13.84;100.00;98984.53;1712851;82;21619;-45
2022/10/25 08:15:51;;;;;;;11.93;7.53;;;;;;;13.88;100.00;98983.37;1709782;82;21018;-46
2022/10/25 08:18:18;;;;;;;20.32;6.78;;;;;;;13.98;100.00;98990.13;1724875;81;20999;-44
2022/10/25 08:20:46;;;;;;;11.55;6.70;;;;;;;14.04;100.00;98988.83;1722716;82;21673;-47
2022/10/25 08:23:14;;;;;;;11.95;6.40;;;;;;;14.12;100.00;98982.50;1744787;81;21042;-46
2022/10/25 08:25:41;;;;;;;11.63;6.50;;;;;;;14.32;100.00;98983.16;1754775;80;21030;-47
2022/10/25 08:28:08;;;;;;;9.58;6.22;;;;;;;14.51;100.00;98981.75;1753262;80;21070;-49
2022/10/25 08:30:35;;;;;;;12.37;6.58;;;;;;;14.70;100.00;98986.03;1735930;80;21112;-49
2022/10/25 08:33:02;;;;;;;13.68;7.30;;;;;;;15.00;100.00;98975.33;1721934;83;21547;-48
2022/10/25 08:35:29;;;;;;;14.18;6.47;;;;;;;15.13;97.85;98979.17;1719804;83;21108;-47
2022/10/25 08:38:01;;;;;;;12.47;6.10;;;;;;;15.29;98.01;98992.05;1720494;83;21105;-50
2022/10/25 08:40:57;;;;;;;12.18;6.55;;;;;;;15.28;96.00;98989.89;1716602;83;21621;-48
2022/10/25 08:43:49;;;;;;;9.98;5.83;;;;;;;15.41;96.09;98999.48;1663967;84;21071;-48
2022/10/25 08:46:23;;;;;;;16.05;5.70;;;;;;;15.52;94.67;98996.84;1731128;81;21058;-45
2022/10/25 08:48:58;;;;;;;11.68;5.33;;;;;;;15.64;94.92;98998.97;1724516;80;21030;-47
2022/10/25 08:51:30;;;;;;;10.90;5.00;;;;;;;15.72;94.99;98999.20;1728535;80;21054;-45
2022/10/25 08:54:02;;;;;;;11.12;4.90;;;;;;;15.86;95.42;98995.44;1732837;81;21057;-45
2022/10/25 08:56:31;;;;;;;10.20;4.25;;;;;;;16.08;92.63;98996.70;1735563;81;21062;-49
2022/10/25 08:59:01;;;;;;;9.03;4.20;;;;;;;16.42;92.55;98985.06;1722352;81;21556;-45
2022/10/25 09:01:39;;;;;;;11.22;3.83;;;;;;;16.64;91.27;98993.37;1724311;80;21026;-47
2022/10/25 09:04:06;;;;;;;6.72;3.45;;;;;;;16.68;91.14;98996.97;1725397;80;21042;-46
2022/10/25 09:07:02;;;;;;;10.50;3.90;;;;;;;16.49;87.49;99001.66;1740495;81;21085;-48
2022/10/25 09:09:43;;;;;;;6.45;3.60;;;;;;;16.52;88.02;99000.58;1720065;81;21554;-46
2022/10/25 09:12:30;;;;;;;7.67;3.62;;;;;;;16.50;87.58;99004.68;1727494;80;21133;-48
2022/10/25 09:15:11;;;;;;;11.05;4.03;;;;;;;16.46;87.75;99011.23;1727769;81;21085;-45
2022/10/25 09:17:52;;;;;;;9.80;3.95;;;;;;;16.45;88.05;99006.88;1724833;80;21097;-45
2022/10/25 09:20:28;;;;;;;5.87;3.80;;;;;;;16.54;88.93;98998.62;1727859;81;21160;-47
2022/10/25 09:23:07;;;;;;;13.48;4.08;;;;;;;16.57;87.56;99006.80;1720949;81;20999;-47
2022/10/25 09:26:08;;;;;;;7.87;3.60;;;;;;;16.57;87.64;99002.36;1726895;80;21165;-46
2022/10/25 09:29:01;;;;;;;9.15;3.85;;;;;;;16.61;87.48;99003.77;1739755;79;21002;-47
2022/10/25 09:31:32;;;;;;;11.73;3.75;;;;;;;16.62;87.55;99008.59;1767395;79;21531;-49
2022/10/25 09:34:02;;;;;;;11.10;4.10;;;;;;;16.58;86.80;99015.97;1708101;80;21043;-47
2022/10/25 09:36:34;;;;;;;8.45;3.90;;;;;;;16.50;87.13;99023.27;1756382;80;21476;-48
2022/10/25 09:39:06;;;;;;;9.73;3.30;;;;;;;16.43;86.92;99018.11;1760762;80;21008;-50
2022/10/25 09:41:52;;;;;;;11.18;3.50;;;;;;;16.43;86.75;99022.59;1759249;80;21032;-50
2022/10/25 09:44:36;;;;;;;13.35;3.83;;;;;;;16.44;86.27;99018.45;1764183;78;21050;-50
2022/10/25 09:47:31;;;;;;;7.20;3.50;;;;;;;16.27;85.37;99016.39;1741989;81;21012;-48
2022/10/25 09:50:13;;;;;;;11.22;4.83;;;;;;;16.23;85.77;99018.45;1761925;79;21000;-51
2022/10/25 09:52:57;;;;;;;8.45;4.37;;;;;;;16.15;86.09;99012.09;1766976;80;21539;-45
2022/10/25 09:55:39;;;;;;;10.50;5.42;;;;;;;16.15;86.16;99010.27;1773395;80;21062;-46
2022/10/25 09:58:11;;;;;;;66.55;41.50;;;;;;;16.10;86.27;99008.02;1755850;80;21019;-45
2022/10/25 10:00:39;;;;;;;9.73;5.05;;;;;;;16.15;86.69;99005.46;1745363;80;21002;-47
2022/10/25 10:03:10;;;;;;;8.55;4.58;;;;;;;16.21;86.43;99014.22;1755654;80;21109;-45
2022/10/25 10:05:42;;;;;;;7.12;3.85;;;;;;;16.18;85.75;99011.84;1783063;79;21006;-45
2022/10/25 10:08:09;;;;;;;6.35;3.47;;;;;;;16.17;86.09;99003.05;1754139;80;21039;-47
2022/10/25 10:10:36;;;;;;;8.10;3.65;;;;;;;16.17;86.23;99004.84;1755944;80;21052;-45
2022/10/25 10:13:41;;;;;;;8.18;3.42;;;;;;;16.17;86.45;99011.48;1754630;80;21597;-47
2022/10/25 10:16:20;;;;;;;10.03;3.55;;;;;;;16.16;86.10;99011.14;1743989;79;21085;-46
2022/10/25 10:18:47;;;;;;;9.28;3.90;;;;;;;16.09;85.89;99011.63;1747990;79;21006;-47
2022/10/25 10:21:21;;;;;;;;;;;;;;;16.10;86.13;99009.34;1756433;80;21494;-45
2022/10/25 10:24:01;;;;;;;10.98;3.37;;;;;;;16.03;85.54;99020.10;1726695;81;20190;-44
2022/10/25 10:26:45;;;;;;;62.13;35.13;;;;;;;16.05;85.96;99018.16;1763265;79;21002;-43
2022/10/25 10:29:21;;;;;;;41.10;23.50;;;;;;;15.96;85.78;99024.72;1756058;80;21033;-44
2022/10/25 10:31:52;;;;;;;13.18;7.25;;;;;;;15.91;86.12;99019.77;1749416;79;21057;-45
2022/10/25 10:34:29;;;;;;;10.25;3.52;;;;;;;15.93;85.94;99016.51;1735676;80;21538;-46
2022/10/25 10:37:13;;;;;;;5.08;3.27;;;;;;;15.85;86.05;99018.96;1755125;80;21002;-45
2022/10/25 10:40:09;;;;;;;6.12;3.37;;;;;;;15.85;85.83;99026.91;1760636;79;21425;-45
2022/10/25 10:42:40;;;;;;;12.53;3.70;;;;;;;15.93;85.79;99019.16;1759421;80;21320;-47
2022/10/25 10:45:14;;;;;;;9.85;3.52;;;;;;;15.92;85.00;99026.28;1750563;80;21070;-46
2022/10/25 10:47:55;;;;;;;12.55;4.53;;;;;;;15.99;85.45;99019.14;1769886;80;21070;-46
2022/10/25 10:50:27;;;;;;;13.08;3.52;;;;;;;16.00;85.01;99018.19;1739657;80;21542;-48
2022/10/25 10:53:25;;;;;;;13.32;3.55;;;;;;;16.05;84.95;99017.33;1752631;80;21574;-45
2022/10/25 10:55:54;;;;;;;9.58;3.75;;;;;;;16.15;85.24;99031.98;1758320;80;20984;-45
2022/10/25 10:58:34;;;;;;;17.73;4.37;;;;;;;16.21;84.82;99024.84;1770720;80;21468;-44
2022/10/25 11:01:05;;;;;;;7.35;3.40;;;;;;;16.25;85.05;99021.81;1765564;80;20971;-50
2022/10/25 11:03:46;;;;;;;12.13;4.60;;;;;;;16.27;84.55;99027.83;1769466;79;20978;-45
2022/10/25 11:06:17;;;;;;;6.97;3.30;;;;;;;16.38;84.76;99021.62;1757683;80;21466;-43
2022/10/25 11:08:47;;;;;;;7.53;3.37;;;;;;;16.47;84.09;99030.64;1761543;80;21527;-45
2022/10/25 11:11:22;;;;;;;9.85;3.80;;;;;;;16.56;83.97;99034.34;1766644;80;21066;-44
2022/10/25 11:14:00;;;;;;;12.10;3.42;;;;;;;16.68;83.19;99020.87;1749091;80;21106;-45
2022/10/25 11:16:52;;;;;;;9.05;3.10;;;;;;;16.93;83.99;99021.94;1740418;80;21049;-44
2022/10/25 11:19:42;;;;;;;9.80;3.45;;;;;;;17.05;82.53;99023.05;1753693;79;21113;-45
2022/10/25 11:22:31;;;;;;;12.23;3.37;;;;;;;17.18;81.84;99020.66;1758584;80;20990;-45
2022/10/25 11:25:30;;;;;;;8.03;2.72;;;;;;;17.17;81.01;99011.86;1773849;80;21003;-44
2022/10/25 11:28:08;;;;;;;20.37;3.75;;;;;;;17.12;81.48;99009.22;1768193;80;21023;-45
2022/10/25 11:30:40;;;;;;;10.28;3.80;;;;;;;16.94;81.06;99011.68;1750462;80;21166;-44
2022/10/25 11:33:39;;;;;;;178.45;113.80;;;;;;;16.76;80.82;99014.90;1749540;81;21064;-46
2022/10/25 11:36:17;;;;;;;84.65;55.15;;;;;;;16.61;81.37;99017.05;1735601;80;21053;-46
2022/10/25 11:38:57;;;;;;;13.83;6.30;;;;;;;16.63;81.58;99023.56;1757243;80;21022;-45
2022/10/25 11:41:41;;;;;;;10.80;3.40;;;;;;;16.78;81.28;99016.93;1769789;80;21359;-45
2022/10/25 11:44:21;;;;;;;8.58;2.87;;;;;;;16.88;80.97;99021.85;1757584;79;21395;-46
2022/10/25 11:47:09;;;;;;;6.00;3.17;;;;;;;16.98;81.19;99023.72;1759189;80;21536;-46